Time;durP1;ratioP1;P1;durP2;ratioP2;P2;SDS_P1;SDS_P2;PMS_P1;PMS_P2;Temp;Humidity;BMP_temperature;BMP_pressure;BME280_temperature;BME280_humidity;BME280_pressure;Samples;Min_cycle;Max_cycle;Signal;HPM_P1;HPM_P2
2022/03/29 00:00:19;;;;;;;39.83;34.15;;;;;;;6.82;84.91;101650.16;5025531;28;20062;-60
2022/03/29 00:02:45;;;;;;;38.83;32.25;;;;;;;6.78;84.27;101649.50;5025489;28;20025;-62
2022/03/29 00:05:10;;;;;;;38.35;34.03;;;;;;;6.77;85.05;101658.16;5012865;28;20043;-60
2022/03/29 00:07:35;;;;;;;37.20;33.15;;;;;;;6.78;84.96;101639.19;5005854;28;20026;-60
2022/03/29 00:10:05;;;;;;;37.33;33.13;;;;;;;6.74;84.42;101648.00;5006103;28;20030;-61
2022/03/29 00:12:31;;;;;;;39.90;34.13;;;;;;;6.68;84.76;101650.88;5005586;28;20049;-60
2022/03/29 00:14:57;;;;;;;38.45;34.40;;;;;;;6.68;85.01;101639.75;5015468;28;20041;-60
2022/03/29 00:17:22;;;;;;;37.38;33.30;;;;;;;6.71;84.49;101643.00;5025208;28;20527;-60
2022/03/29 00:19:47;;;;;;;38.40;34.30;;;;;;;6.69;84.11;101639.66;5008364;28;20030;-65
2022/03/29 00:22:13;;;;;;;38.70;34.17;;;;;;;6.67;84.45;101636.34;5021505;28;20493;-60
2022/03/29 00:24:38;;;;;;;38.53;34.35;;;;;;;6.64;84.76;101628.75;4999018;28;20120;-61
2022/03/29 00:27:05;;;;;;;39.72;33.70;;;;;;;6.62;84.51;101628.00;4994687;28;20132;-61
2022/03/29 00:29:31;;;;;;;39.10;34.17;;;;;;;6.62;85.36;101625.44;4990826;28;20038;-62
2022/03/29 00:31:56;;;;;;;37.80;33.70;;;;;;;6.63;84.27;101629.66;5011652;28;20381;-60
2022/03/29 00:34:21;;;;;;;40.40;34.45;;;;;;;6.53;84.83;101616.41;5020052;28;20072;-60
2022/03/29 00:36:47;;;;;;;41.50;34.15;;;;;;;6.48;84.81;101618.44;5029413;28;20127;-62
2022/03/29 00:39:12;;;;;;;39.45;35.25;;;;;;;6.49;85.08;101622.66;5027418;28;20970;-60
2022/03/29 00:41:37;;;;;;;39.33;35.03;;;;;;;6.45;84.84;101625.47;5029318;28;20030;-60
2022/03/29 00:44:05;;;;;;;41.63;37.20;;;;;;;6.44;85.64;101623.81;5026819;28;20493;-64
2022/03/29 00:46:31;;;;;;;40.55;36.17;;;;;;;6.39;85.64;101614.56;5009180;28;20536;-61
2022/03/29 00:48:57;;;;;;;44.35;36.78;;;;;;;6.34;86.06;101610.56;5017999;28;20030;-61
2022/03/29 00:51:23;;;;;;;41.08;36.30;;;;;;;6.35;85.99;101605.31;5006057;28;20092;-63
2022/03/29 00:53:48;;;;;;;39.70;35.42;;;;;;;6.31;85.45;101603.00;5009497;28;20034;-60
2022/03/29 00:56:14;;;;;;;40.42;35.88;;;;;;;6.24;85.95;101592.16;5015914;28;20026;-63
2022/03/29 00:58:39;;;;;;;40.28;35.83;;;;;;;6.26;85.77;101598.09;5009387;28;20026;-61
2022/03/29 01:01:05;;;;;;;40.45;36.15;;;;;;;6.26;85.37;101605.81;5025206;28;20426;-60
2022/03/29 01:03:30;;;;;;;41.20;36.55;;;;;;;6.23;85.88;101600.81;5012429;28;20152;-61
2022/03/29 01:05:56;;;;;;;39.92;35.63;;;;;;;6.26;85.68;101597.25;5011771;28;20113;-60
2022/03/29 01:08:24;;;;;;;41.42;37.00;;;;;;;6.26;85.53;101595.50;5008830;28;20105;-60
2022/03/29 01:10:51;;;;;;;43.03;38.33;;;;;;;6.18;85.21;101587.31;5008864;28;20044;-61
2022/03/29 01:13:17;;;;;;;39.60;34.97;;;;;;;6.19;85.69;101599.28;5008609;28;20382;-60
2022/03/29 01:15:43;;;;;;;41.83;37.33;;;;;;;6.15;85.62;101587.50;5023379;28;20498;-60
2022/03/29 01:18:08;;;;;;;40.58;36.17;;;;;;;6.19;85.82;101583.81;5025965;28;20470;-60
2022/03/29 01:20:35;;;;;;;42.67;36.58;;;;;;;6.18;85.01;101586.50;5008744;28;20025;-59
2022/03/29 01:23:01;;;;;;;40.17;35.92;;;;;;;6.09;85.62;101577.50;5018536;28;20033;-61
2022/03/29 01:25:34;;;;;;;40.80;36.30;;;;;;;6.13;85.05;101579.00;4992103;28;20034;-60
2022/03/29 01:28:02;;;;;;;40.92;36.63;;;;;;;6.10;85.51;101576.59;5010166;28;20065;-62
2022/03/29 01:30:27;;;;;;;41.08;36.67;;;;;;;6.15;84.86;101574.63;5027954;28;20084;-61
2022/03/29 01:32:53;;;;;;;38.85;34.78;;;;;;;6.13;84.82;101579.81;5015051;28;20441;-64
2022/03/29 01:35:21;;;;;;;42.67;37.75;;;;;;;6.10;85.37;101574.84;4999118;28;20750;-61
2022/03/29 01:37:47;;;;;;;42.47;37.90;;;;;;;6.04;85.10;101569.19;5022439;28;20049;-60
2022/03/29 01:40:19;;;;;;;40.85;36.10;;;;;;;6.10;84.53;101568.88;5028023;28;20470;-61
2022/03/29 01:42:49;;;;;;;40.08;35.70;;;;;;;5.98;84.97;101564.34;5022916;28;20033;-60
2022/03/29 01:45:15;;;;;;;40.58;36.17;;;;;;;5.96;84.83;101566.13;5024023;28;20083;-62
2022/03/29 01:47:41;;;;;;;39.75;35.45;;;;;;;5.96;84.97;101566.13;5010092;28;20418;-61
2022/03/29 01:50:07;;;;;;;42.22;37.60;;;;;;;5.88;84.70;101565.66;5028117;28;20044;-61
2022/03/29 01:52:41;;;;;;;43.25;36.33;;;;;;;5.86;85.17;101561.44;5023512;28;20022;-60
2022/03/29 01:55:08;;;;;;;41.80;37.15;;;;;;;5.80;84.82;101555.75;5022194;28;20041;-61
2022/03/29 01:57:34;;;;;;;43.55;38.05;;;;;;;5.86;85.08;101556.28;5008011;28;20121;-60
2022/03/29 02:02:43;;;;;;;44.20;39.42;;;;;;;5.71;85.74;101551.88;5011915;28;20496;-60
2022/03/29 02:05:09;;;;;;;44.70;39.78;;;;;;;5.66;85.50;101548.72;5013063;28;20029;-61
2022/03/29 02:07:35;;;;;;;45.75;39.92;;;;;;;5.71;86.18;101541.59;4990054;28;20077;-62
2022/03/29 02:10:00;;;;;;;49.15;41.40;;;;;;;5.66;86.33;101525.56;5007926;28;20034;-60
2022/03/29 02:12:26;;;;;;;52.63;42.25;;;;;;;5.60;86.51;101523.28;5007643;28;20026;-60
2022/03/29 02:14:51;;;;;;;54.50;44.25;;;;;;;5.62;86.80;101531.78;5018805;28;20037;-60
2022/03/29 02:17:16;;;;;;;54.75;43.88;;;;;;;5.56;87.50;101529.47;5026993;28;20037;-61
2022/03/29 02:19:41;;;;;;;55.78;45.60;;;;;;;5.58;87.37;101522.53;5027181;28;20021;-60
2022/03/29 02:22:07;;;;;;;52.85;44.55;;;;;;;5.58;87.44;101514.81;5009813;28;20033;-63
2022/03/29 02:24:32;;;;;;;55.80;45.20;;;;;;;5.63;86.97;101519.75;5021344;28;20029;-59
2022/03/29 02:26:58;;;;;;;52.72;43.83;;;;;;;5.56;87.54;101506.31;5007914;28;20056;-60
2022/03/29 02:29:23;;;;;;;54.95;45.33;;;;;;;5.63;87.47;101512.84;5009369;28;20025;-60
2022/03/29 02:31:48;;;;;;;54.83;44.65;;;;;;;5.56;88.10;101501.19;5008212;28;20504;-60
2022/03/29 02:34:14;;;;;;;57.45;46.00;;;;;;;5.49;88.28;101510.13;4989609;28;20065;-61
2022/03/29 02:36:39;;;;;;;56.10;44.22;;;;;;;5.55;87.68;101509.81;5016646;28;20508;-62
2022/03/29 02:39:05;;;;;;;55.78;46.35;;;;;;;5.51;88.39;101501.44;5025596;28;20610;-60
2022/03/29 02:41:30;;;;;;;57.90;46.47;;;;;;;5.49;88.58;101512.69;5026906;28;20021;-60
2022/03/29 02:43:55;;;;;;;55.42;44.78;;;;;;;5.51;88.26;101500.59;5022604;28;20046;-62
2022/03/29 02:46:20;;;;;;;57.88;46.47;;;;;;;5.48;88.27;101493.03;5019492;28;20079;-60
2022/03/29 02:48:46;;;;;;;58.30;46.63;;;;;;;5.46;89.18;101489.69;5027231;28;20037;-60
2022/03/29 02:51:11;;;;;;;59.78;46.17;;;;;;;5.42;89.01;101483.03;5011014;28;20030;-64
2022/03/29 02:53:36;;;;;;;60.05;46.40;;;;;;;5.36;89.28;101478.19;4989749;28;20034;-60
2022/03/29 02:56:02;;;;;;;59.30;47.33;;;;;;;5.37;89.56;101485.00;5008045;28;20355;-60
2022/03/29 02:58:27;;;;;;;58.63;47.50;;;;;;;5.33;89.49;101480.03;5006394;28;20033;-61
2022/03/29 03:00:52;;;;;;;59.75;47.35;;;;;;;5.36;89.53;101473.03;5007459;28;20026;-60
2022/03/29 03:03:18;;;;;;;59.35;47.65;;;;;;;5.29;89.93;101475.94;4989734;28;20467;-61
2022/03/29 03:05:45;;;;;;;58.92;46.88;;;;;;;5.39;89.82;101483.16;5022817;28;20137;-60
2022/03/29 03:08:10;;;;;;;62.22;49.03;;;;;;;5.40;90.09;101474.56;5008568;28;20147;-61
2022/03/29 03:10:36;;;;;;;63.38;49.47;;;;;;;5.47;90.15;101483.66;5026758;28;20026;-60
2022/03/29 03:13:01;;;;;;;63.53;48.90;;;;;;;5.43;90.05;101469.25;5026046;28;20049;-60
2022/03/29 03:15:26;;;;;;;63.97;48.40;;;;;;;5.44;89.84;101470.91;5013173;28;20131;-60
2022/03/29 03:17:53;;;;;;;62.60;48.53;;;;;;;5.36;90.17;101462.75;5007291;28;20088;-61
2022/03/29 03:20:20;;;;;;;62.05;47.67;;;;;;;5.39;90.31;101462.59;5006693;28;20041;-62
2022/03/29 03:22:46;;;;;;;63.42;49.05;;;;;;;5.32;90.49;101455.19;5007350;28;20034;-59
2022/03/29 03:25:11;;;;;;;62.78;47.78;;;;;;;5.32;90.42;101468.03;5013458;28;20493;-63
2022/03/29 03:27:38;;;;;;;65.35;49.22;;;;;;;5.28;90.83;101451.13;5025773;28;20531;-60
2022/03/29 03:30:05;;;;;;;65.18;48.33;;;;;;;5.37;90.46;101454.13;5009648;28;20536;-60
2022/03/29 03:32:31;;;;;;;65.32;49.05;;;;;;;5.38;90.80;101445.50;5008433;28;20618;-60
2022/03/29 03:34:57;;;;;;;70.70;49.75;;;;;;;5.31;91.12;101448.38;5025372;28;20037;-61
2022/03/29 03:37:23;;;;;;;66.93;50.20;;;;;;;5.31;91.15;101440.66;5026123;28;20048;-62
2022/03/29 03:39:48;;;;;;;64.55;49.08;;;;;;;5.31;91.23;101450.94;5010926;28;20493;-61
2022/03/29 03:42:14;;;;;;;64.97;48.95;;;;;;;5.28;91.18;101434.84;5006220;28;20084;-60
2022/03/29 03:44:39;;;;;;;65.15;48.65;;;;;;;5.38;90.81;101440.34;5012471;28;20025;-60
2022/03/29 03:47:07;;;;;;;70.13;49.15;;;;;;;5.37;90.89;101443.84;5009090;28;20028;-59
2022/03/29 03:49:33;;;;;;;63.30;48.67;;;;;;;5.35;91.19;101445.66;5005530;28;20037;-62
2022/03/29 03:51:59;;;;;;;58.63;46.33;;;;;;;5.31;90.93;101429.53;5005144;28;20607;-60
2022/03/29 03:54:24;;;;;;;78.03;48.50;;;;;;;5.27;91.28;101439.16;5005279;28;20048;-60
2022/03/29 03:56:49;;;;;;;62.88;47.70;;;;;;;5.37;91.00;101443.84;5014739;28;20068;-61
2022/03/29 03:59:14;;;;;;;73.00;48.35;;;;;;;5.31;91.37;101434.69;5024856;28;20350;-61
2022/03/29 04:01:40;;;;;;;73.97;47.67;;;;;;;5.33;91.19;101438.00;5024993;28;20079;-64
2022/03/29 04:04:05;;;;;;;63.50;47.70;;;;;;;5.37;91.09;101433.56;5008934;28;20447;-61
2022/03/29 04:06:30;;;;;;;65.78;46.88;;;;;;;5.30;91.34;101430.47;5007939;28;20518;-62
2022/03/29 04:08:56;;;;;;;75.47;47.58;;;;;;;5.25;91.60;101424.72;4990647;28;20432;-60
2022/03/29 04:11:21;;;;;;;70.95;47.75;;;;;;;5.24;91.12;101423.06;5007520;28;20033;-62
2022/03/29 04:13:46;;;;;;;64.28;47.13;;;;;;;5.26;91.09;101422.06;5007950;28;20509;-60
2022/03/29 04:16:12;;;;;;;70.20;46.50;;;;;;;5.19;91.34;101423.28;5008785;28;20038;-63
2022/03/29 04:18:37;;;;;;;64.75;45.53;;;;;;;5.28;91.20;101425.41;5009057;28;20137;-60
2022/03/29 04:21:05;;;;;;;76.15;46.03;;;;;;;5.28;91.12;101420.25;5025484;28;20550;-61
2022/03/29 04:23:30;;;;;;;66.10;45.75;;;;;;;5.25;91.16;101419.56;5020617;28;20033;-61
2022/03/29 04:25:57;;;;;;;63.45;43.20;;;;;;;5.23;91.46;101416.25;5008978;28;20458;-60
2022/03/29 04:28:23;;;;;;;71.70;42.88;;;;;;;5.10;92.07;101410.84;5024496;28;20400;-61
2022/03/29 04:30:48;;;;;;;59.03;44.60;;;;;;;5.20;91.67;101414.66;5028888;28;20470;-65
2022/03/29 04:33:14;;;;;;;68.13;45.28;;;;;;;5.16;91.92;101410.59;5019785;28;20034;-60
2022/03/29 04:35:39;;;;;;;73.40;45.45;;;;;;;5.12;91.86;101414.19;5021143;28;20045;-61
2022/03/29 04:38:05;;;;;;;64.35;42.58;;;;;;;5.10;91.71;101405.72;5013106;28;20026;-60
2022/03/29 04:40:30;;;;;;;72.63;42.38;;;;;;;5.08;91.53;101397.25;4990640;28;20467;-60
2022/03/29 04:42:55;;;;;;;71.35;43.17;;;;;;;5.07;91.99;101400.75;4992173;28;20026;-61
2022/03/29 04:45:21;;;;;;;72.43;42.80;;;;;;;5.04;92.34;101406.03;5009006;28;20018;-61
2022/03/29 04:47:47;;;;;;;55.97;42.70;;;;;;;5.05;92.31;101407.72;5008143;28;20609;-60
2022/03/29 04:50:14;;;;;;;66.28;42.47;;;;;;;5.00;92.50;101405.34;5008569;28;20410;-60
2022/03/29 04:52:44;;;;;;;66.40;43.45;;;;;;;4.98;93.06;101403.75;5012122;28;20032;-60
2022/03/29 04:55:11;;;;;;;79.15;44.08;;;;;;;4.97;93.30;101404.66;5028232;28;20513;-60
2022/03/29 04:57:36;;;;;;;69.68;43.75;;;;;;;4.88;93.65;101389.72;5001811;28;20029;-60
2022/03/29 05:00:04;;;;;;;66.03;44.35;;;;;;;4.91;93.84;101397.25;5004670;28;20385;-60
2022/03/29 05:02:29;;;;;;;69.13;44.25;;;;;;;4.92;93.69;101396.34;5010346;28;20029;-62
2022/03/29 05:04:54;;;;;;;64.15;44.20;;;;;;;4.94;93.40;101399.69;5022014;28;20039;-60
2022/03/29 05:07:22;;;;;;;64.75;44.30;;;;;;;4.97;93.35;101384.09;5000658;28;20048;-60
2022/03/29 05:09:48;;;;;;;65.35;43.33;;;;;;;4.99;93.62;101387.44;5014194;28;20096;-60
2022/03/29 05:12:13;;;;;;;69.70;45.88;;;;;;;4.99;93.52;101383.13;5008293;28;20045;-62
2022/03/29 05:14:38;;;;;;;68.50;45.65;;;;;;;4.94;93.29;101364.53;5027519;28;20029;-61
2022/03/29 05:17:04;;;;;;;65.57;44.63;;;;;;;5.07;93.76;101382.75;5027331;28;20111;-60
2022/03/29 05:19:29;;;;;;;60.17;44.47;;;;;;;5.08;93.48;101381.84;5009825;28;20036;-61
2022/03/29 05:21:54;;;;;;;67.80;44.28;;;;;;;5.10;93.53;101390.28;5027727;28;20029;-60
2022/03/29 05:24:20;;;;;;;66.93;42.95;;;;;;;5.04;94.02;101385.44;5014329;28;20498;-60
2022/03/29 05:26:45;;;;;;;67.57;44.50;;;;;;;5.06;93.67;101389.63;5009501;28;20076;-64
2022/03/29 05:29:11;;;;;;;61.50;44.70;;;;;;;5.06;93.88;101386.22;5014967;28;20040;-61
2022/03/29 05:31:37;;;;;;;63.25;46.00;;;;;;;5.09;93.66;101378.34;5027751;28;20037;-63
2022/03/29 05:34:03;;;;;;;65.65;44.47;;;;;;;5.11;94.04;101386.00;5012919;28;20094;-61
2022/03/29 05:36:28;;;;;;;71.25;46.05;;;;;;;5.14;93.74;101380.69;5006458;28;20061;-60
2022/03/29 05:38:54;;;;;;;65.68;44.70;;;;;;;5.09;93.99;101368.06;5006876;28;20037;-62
2022/03/29 05:41:20;;;;;;;64.05;44.95;;;;;;;5.21;93.43;101376.91;5006879;28;20030;-64
2022/03/29 05:43:47;;;;;;;61.33;42.33;;;;;;;5.19;93.05;101374.41;5006850;28;20394;-62
2022/03/29 05:48:56;;;;;;;69.53;43.35;;;;;;;5.16;93.36;101369.44;5006688;28;20072;-59
2022/03/29 05:51:27;;;;;;;62.70;44.22;;;;;;;5.19;93.63;101383.88;5006469;28;20045;-62
2022/03/29 05:53:53;;;;;;;64.25;42.65;;;;;;;5.21;93.50;101382.88;5009280;28;20421;-62
2022/03/29 05:56:20;;;;;;;64.32;43.90;;;;;;;5.21;93.54;101384.63;5020611;28;20026;-59
2022/03/29 05:58:45;;;;;;;63.38;41.63;;;;;;;5.19;93.59;101379.56;4988767;28;20458;-61
2022/03/29 06:01:11;;;;;;;58.10;41.40;;;;;;;5.16;93.73;101382.28;5008567;28;20022;-59
2022/03/29 06:03:36;;;;;;;62.95;41.53;;;;;;;5.13;93.62;101374.72;5016913;28;20389;-63
2022/03/29 06:06:02;;;;;;;56.55;40.97;;;;;;;5.14;93.85;101376.38;5009486;28;20078;-60
2022/03/29 06:08:27;;;;;;;60.65;40.78;;;;;;;5.15;93.93;101378.03;4971850;28;20049;-60
2022/03/29 06:10:55;;;;;;;68.68;42.90;;;;;;;5.10;93.91;101371.47;4988913;28;20026;-60
2022/03/29 06:13:20;;;;;;;60.35;41.88;;;;;;;5.12;93.91;101372.22;5008325;28;20076;-61
2022/03/29 06:15:45;;;;;;;57.28;41.58;;;;;;;5.12;94.15;101373.06;5009828;28;20029;-59
2022/03/29 06:18:10;;;;;;;60.63;41.47;;;;;;;5.08;94.20;101356.13;5007461;28;20034;-59
2022/03/29 06:20:36;;;;;;;70.20;42.03;;;;;;;5.12;94.62;101367.91;5006827;28;20034;-65
2022/03/29 06:23:01;;;;;;;58.72;40.53;;;;;;;5.12;94.37;101373.06;5011961;28;20104;-62
2022/03/29 06:25:26;;;;;;;61.72;39.53;;;;;;;5.12;94.27;101365.34;5007262;28;20034;-61
2022/03/29 06:27:53;;;;;;;63.58;41.33;;;;;;;5.11;94.43;101365.44;5006921;28;20400;-65
2022/03/29 06:30:18;;;;;;;64.53;43.08;;;;;;;5.08;94.35;101366.41;5022474;28;20029;-63
2022/03/29 06:32:50;;;;;;;71.07;43.15;;;;;;;5.08;94.84;101366.41;5010379;28;20040;-66
2022/03/29 06:35:37;;;;;;;64.40;42.33;;;;;;;5.15;95.06;101362.59;5019654;28;20514;-60
2022/03/29 06:38:03;;;;;;;74.40;44.17;;;;;;;5.10;94.73;101363.75;5008526;28;20041;-63
2022/03/29 06:40:29;;;;;;;62.00;43.65;;;;;;;5.12;94.82;101362.78;5006792;28;20044;-60
2022/03/29 06:42:57;;;;;;;69.78;42.75;;;;;;;5.11;95.02;101361.13;5006614;28;20033;-62
2022/03/29 06:45:23;;;;;;;62.92;43.67;;;;;;;5.15;95.18;101367.75;5011587;28;20033;-60
2022/03/29 06:47:49;;;;;;;64.43;44.60;;;;;;;5.16;95.22;101374.59;5006977;28;20037;-61
2022/03/29 06:50:15;;;;;;;65.22;43.92;;;;;;;5.13;95.11;101364.44;5011529;28;20033;-62
2022/03/29 06:52:43;;;;;;;68.90;43.42;;;;;;;5.17;95.34;101370.28;5020992;28;20044;-60
2022/03/29 06:55:15;;;;;;;70.50;43.88;;;;;;;5.15;95.45;101378.03;5024963;28;20029;-68
2022/03/29 06:57:40;;;;;;;63.38;43.53;;;;;;;5.23;95.29;101369.97;5009758;28;20076;-60
2022/03/29 07:00:11;;;;;;;64.90;42.50;;;;;;;5.21;95.12;101375.16;5005557;28;20021;-65
2022/03/29 07:02:37;;;;;;;63.03;42.20;;;;;;;5.21;95.55;101370.00;5007526;28;20046;-61
2022/03/29 07:05:04;;;;;;;62.65;43.08;;;;;;;5.23;95.32;101369.97;5011595;28;20117;-61
2022/03/29 07:07:29;;;;;;;61.78;42.03;;;;;;;5.24;95.15;101372.44;5026139;28;20036;-61
2022/03/29 07:12:53;;;;;;;64.13;43.10;;;;;;;5.24;95.35;101375.03;5012870;28;20171;-62
2022/03/29 07:15:19;;;;;;;65.85;44.47;;;;;;;5.21;95.42;101372.59;5025758;28;20025;-62
2022/03/29 07:17:45;;;;;;;61.60;42.70;;;;;;;5.25;95.69;101384.38;5026668;28;20485;-62
2022/03/29 07:20:12;;;;;;;63.90;43.15;;;;;;;5.26;95.15;101383.47;5020632;28;20100;-64
2022/03/29 07:22:38;;;;;;;62.95;44.05;;;;;;;5.29;95.27;101380.75;5006610;28;20072;-60
2022/03/29 07:25:04;;;;;;;62.55;43.30;;;;;;;5.26;95.70;101375.75;5006441;28;20038;-61
2022/03/29 07:27:30;;;;;;;65.50;43.30;;;;;;;5.32;94.91;101384.91;5006904;28;20026;-63
2022/03/29 07:29:57;;;;;;;64.40;44.20;;;;;;;5.36;95.45;101380.44;5004967;28;20033;-66
2022/03/29 07:32:22;;;;;;;65.93;43.70;;;;;;;5.36;95.33;101375.31;5009602;28;20533;-61
2022/03/29 07:34:47;;;;;;;66.57;43.38;;;;;;;5.35;95.73;101378.78;5005388;28;20056;-66
2022/03/29 07:37:13;;;;;;;74.40;44.45;;;;;;;5.33;95.93;101372.00;5007511;28;20247;-61
2022/03/29 07:39:40;;;;;;;65.93;43.58;;;;;;;5.31;95.68;101373.78;5006661;28;20029;-62
2022/03/29 07:42:06;;;;;;;65.18;43.08;;;;;;;5.39;95.62;101376.00;5009092;28;20365;-64
2022/03/29 07:44:32;;;;;;;70.07;43.25;;;;;;;5.40;95.72;101377.66;4991229;28;20497;-61
2022/03/29 07:46:57;;;;;;;64.95;42.55;;;;;;;5.39;95.86;101370.00;5010860;28;20109;-63
2022/03/29 07:49:23;;;;;;;66.18;43.78;;;;;;;5.45;95.41;101374.81;5008540;28;20026;-68
2022/03/29 07:51:48;;;;;;;66.00;42.15;;;;;;;5.51;95.90;101374.53;5008896;28;20026;-60
2022/03/29 07:54:13;;;;;;;64.45;43.83;;;;;;;5.44;95.76;101363.69;5008850;28;20524;-61
2022/03/29 07:56:39;;;;;;;64.72;43.00;;;;;;;5.55;95.97;101368.28;5008584;28;20470;-67
2022/03/29 07:59:04;;;;;;;66.80;42.60;;;;;;;5.54;95.44;101364.06;5008735;28;20461;-66
2022/03/29 08:01:30;;;;;;;66.03;42.90;;;;;;;5.58;95.87;101370.72;5011990;28;20061;-60
2022/03/29 08:03:55;;;;;;;65.38;43.13;;;;;;;5.55;95.33;101365.72;5028856;28;20028;-64
2022/03/29 08:06:21;;;;;;;60.95;40.33;;;;;;;5.58;95.63;101371.56;5021751;28;20029;-63
2022/03/29 08:08:47;;;;;;;65.15;41.90;;;;;;;5.61;95.29;101370.53;5029807;28;20037;-66
2022/03/29 08:11:13;;;;;;;65.10;42.22;;;;;;;5.55;95.25;101376.00;5015348;28;20036;-63
2022/03/29 08:13:38;;;;;;;63.05;42.33;;;;;;;5.58;95.10;101370.72;5009460;28;20037;-62
2022/03/29 08:16:04;;;;;;;61.42;41.92;;;;;;;5.57;95.17;101363.91;5025820;28;20033;-61
2022/03/29 08:18:31;;;;;;;61.40;41.47;;;;;;;5.53;95.13;101368.38;5010336;28;20056;-59
2022/03/29 08:20:56;;;;;;;67.75;42.97;;;;;;;5.57;95.55;101369.06;5020324;28;20669;-60
2022/03/29 08:23:22;;;;;;;63.83;42.22;;;;;;;5.60;95.15;101368.88;4992058;28;20034;-61
2022/03/29 08:25:47;;;;;;;64.03;42.92;;;;;;;5.53;95.60;101352.13;5017917;28;20030;-63
2022/03/29 08:28:14;;;;;;;68.28;43.90;;;;;;;5.58;95.75;101360.44;5023412;28;20040;-63
2022/03/29 08:30:41;;;;;;;65.07;44.50;;;;;;;5.60;95.57;101358.59;5019440;28;20532;-61
2022/03/29 08:33:07;;;;;;;65.53;43.13;;;;;;;5.58;95.44;101345.00;5011594;28;20033;-60
2022/03/29 08:35:33;;;;;;;66.22;43.83;;;;;;;5.62;95.49;101354.22;5017863;28;20107;-62
2022/03/29 08:38:00;;;;;;;67.68;43.78;;;;;;;5.64;95.42;101349.81;5009146;28;20032;-60
2022/03/29 08:40:28;;;;;;;66.80;42.47;;;;;;;5.60;95.12;101349.13;5009016;28;20053;-63
2022/03/29 08:42:56;;;;;;;66.07;43.17;;;;;;;5.61;95.05;101349.97;5011264;28;20060;-62
2022/03/29 08:45:26;;;;;;;66.03;43.47;;;;;;;5.60;95.19;101353.44;5009354;28;20036;-62
2022/03/29 08:47:55;;;;;;;70.40;46.03;;;;;;;5.58;95.26;101345.81;5023006;28;20022;-60
2022/03/29 08:50:21;;;;;;;;;;;;;;;5.68;94.30;101348.75;5028275;28;20080;-66
2022/03/29 08:52:47;;;;;;;73.25;46.15;;;;;;;5.60;94.64;101343.16;5028748;28;19925;-61
2022/03/29 08:55:12;;;;;;;71.55;46.88;;;;;;;5.62;94.46;101346.50;5020101;28;20262;-63
2022/03/29 08:57:38;;;;;;;67.40;46.22;;;;;;;5.60;94.22;101354.28;5008699;28;20696;-60
2022/03/29 09:00:05;;;;;;;66.15;45.25;;;;;;;5.60;94.23;101353.44;5015774;28;20037;-60
2022/03/29 09:02:36;;;;;;;61.45;43.58;;;;;;;5.56;94.23;101336.50;5014129;28;20030;-60
2022/03/29 09:05:09;;;;;;;61.58;42.50;;;;;;;5.66;93.78;101353.13;5011233;28;20454;-60
2022/03/29 09:07:53;;;;;;;60.85;42.70;;;;;;;5.72;93.97;101352.81;5008671;28;21048;-64
2022/03/29 09:10:20;;;;;;;61.65;43.00;;;;;;;5.72;93.16;101352.81;5008358;28;20033;-62
2022/03/29 09:12:46;;;;;;;57.35;42.13;;;;;;;5.73;93.36;101353.63;5008741;28;20025;-64
2022/03/29 09:15:12;;;;;;;58.15;40.72;;;;;;;5.71;92.14;101356.28;5011724;28;20492;-63
2022/03/29 09:17:39;;;;;;;55.55;40.58;;;;;;;5.74;92.25;101345.03;5010590;28;20033;-62
2022/03/29 09:20:07;;;;;;;54.15;39.53;;;;;;;5.73;91.89;101354.47;5025204;28;20026;-60
2022/03/29 09:22:35;;;;;;;53.53;39.37;;;;;;;5.77;92.02;101355.13;5006879;28;20517;-61
2022/03/29 09:25:01;;;;;;;53.92;39.85;;;;;;;5.81;91.37;101352.31;5008983;28;20470;-60
2022/03/29 09:27:26;;;;;;;52.53;38.38;;;;;;;5.82;91.68;101353.97;5020371;28;20033;-60
2022/03/29 09:30:12;;;;;;;52.47;38.38;;;;;;;5.84;91.10;101359.88;5010466;28;20461;-61
2022/03/29 09:32:51;;;;;;;52.40;38.47;;;;;;;5.85;91.04;101353.84;5027980;28;20470;-60
2022/03/29 09:35:17;;;;;;;50.47;38.63;;;;;;;5.85;91.15;101358.16;5023743;28;20048;-60
2022/03/29 09:37:44;;;;;;;52.50;39.67;;;;;;;5.91;90.71;101356.97;5015766;28;20029;-60
2022/03/29 09:40:10;;;;;;;56.25;40.13;;;;;;;5.90;90.24;101350.16;5007626;28;20071;-60
2022/03/29 09:42:41;;;;;;;56.53;40.30;;;;;;;5.97;90.41;101346.41;5007766;28;20030;-61
2022/03/29 09:45:08;;;;;;;56.25;39.95;;;;;;;5.95;90.42;101337.91;5010032;28;20440;-60
2022/03/29 09:47:34;;;;;;;52.88;40.35;;;;;;;6.08;90.65;101344.06;5027089;28;20029;-61
2022/03/29 09:50:02;;;;;;;58.47;40.95;;;;;;;6.15;90.54;101342.81;5008001;28;20029;-60
2022/03/29 09:52:34;;;;;;;57.15;41.75;;;;;;;6.19;90.47;101346.88;5006255;28;20076;-62
2022/03/29 09:55:21;;;;;;;55.25;42.17;;;;;;;6.26;90.79;101337.91;5008126;28;20410;-61
2022/03/29 09:57:54;;;;;;;51.15;39.20;;;;;;;6.30;89.34;101349.69;5006391;28;20057;-64
2022/03/29 10:00:39;;;;;;;51.25;39.92;;;;;;;6.33;89.89;101334.06;5007033;28;20029;-67
2022/03/29 10:03:08;;;;;;;53.65;39.50;;;;;;;6.33;89.57;101334.06;5006222;28;20033;-61
2022/03/29 10:05:35;;;;;;;49.13;38.65;;;;;;;6.36;88.70;101333.88;5007336;28;20107;-63
2022/03/29 10:10:58;;;;;;;50.58;37.30;;;;;;;6.39;87.98;101332.91;5009027;28;20079;-63
2022/03/29 10:13:24;;;;;;;52.22;39.42;;;;;;;6.38;88.28;101328.66;5005548;28;20165;-61
2022/03/29 10:15:51;;;;;;;48.88;39.20;;;;;;;6.44;87.73;101324.91;5008167;28;20114;-61
2022/03/29 10:18:18;;;;;;;53.30;41.08;;;;;;;6.47;87.97;101324.72;5005997;28;20034;-66
2022/03/29 10:20:44;;;;;;;52.17;39.53;;;;;;;6.54;87.86;101324.31;5006335;28;20026;-60
2022/03/29 10:23:11;;;;;;;48.47;38.00;;;;;;;6.56;87.16;101325.06;4994281;28;20028;-63
2022/03/29 10:25:38;;;;;;;50.63;38.65;;;;;;;6.58;87.36;101322.38;5015638;28;20044;-62
2022/03/29 10:28:05;;;;;;;51.55;38.03;;;;;;;6.62;86.75;101316.97;5009786;28;20026;-62
2022/03/29 10:30:35;;;;;;;51.42;38.53;;;;;;;6.71;86.75;101323.34;5007444;28;20029;-60
2022/03/29 10:33:25;;;;;;;50.33;37.72;;;;;;;6.76;86.14;101330.81;4988341;28;20048;-67
2022/03/29 10:36:11;;;;;;;51.08;38.72;;;;;;;6.81;86.87;101324.47;5006894;28;20498;-61
2022/03/29 10:38:42;;;;;;;47.92;36.90;;;;;;;6.84;85.84;101323.47;5007215;28;20044;-60
2022/03/29 10:41:28;;;;;;;51.47;38.33;;;;;;;6.93;85.74;101318.59;5007935;28;20040;-60
2022/03/29 10:43:54;;;;;;;50.15;38.03;;;;;;;6.98;85.16;101314.94;5006426;28;20125;-61
2022/03/29 10:46:37;;;;;;;45.05;34.72;;;;;;;7.07;85.34;101319.56;5021624;28;20087;-63
2022/03/29 10:49:16;;;;;;;47.17;35.72;;;;;;;7.09;84.23;101312.53;5026646;28;20056;-60
2022/03/29 10:51:41;;;;;;;46.78;36.17;;;;;;;7.15;83.53;101307.03;5009738;28;20026;-60
2022/03/29 10:54:25;;;;;;;45.10;35.45;;;;;;;7.12;83.24;101297.72;5026518;28;20037;-60
2022/03/29 10:57:06;;;;;;;46.88;35.63;;;;;;;7.25;83.55;101308.13;5025972;28;20063;-63
2022/03/29 10:59:32;;;;;;;45.10;36.05;;;;;;;7.28;82.49;101307.94;5025278;28;20045;-63
2022/03/29 11:02:08;;;;;;;44.67;34.72;;;;;;;7.34;81.52;101305.00;5022146;28;20030;-63
2022/03/29 11:04:34;;;;;;;42.88;34.50;;;;;;;7.38;81.29;101298.72;5006310;28;20042;-64
2022/03/29 11:07:06;;;;;;;46.13;35.25;;;;;;;7.50;81.94;101296.31;5006804;28;20026;-60
2022/03/29 11:09:33;;;;;;;45.78;35.63;;;;;;;7.59;81.91;101286.28;5006409;28;20037;-64
2022/03/29 11:11:58;;;;;;;45.22;33.85;;;;;;;7.67;81.34;101278.88;5007635;28;20064;-67
2022/03/29 11:14:37;;;;;;;46.25;35.45;;;;;;;7.72;80.17;101281.16;5022180;28;20026;-63
2022/03/29 11:17:09;;;;;;;46.92;35.08;;;;;;;7.92;81.47;101265.28;5006865;28;20470;-61
2022/03/29 11:19:43;;;;;;;45.03;34.80;;;;;;;7.96;79.93;101264.13;5006087;28;20057;-62
2022/03/29 11:22:36;;;;;;;44.30;34.05;;;;;;;8.04;79.42;101261.06;5006447;28;20037;-61
2022/03/29 11:25:09;;;;;;;45.00;33.60;;;;;;;8.08;78.66;101262.50;4996714;28;20532;-60
2022/03/29 11:27:36;;;;;;;44.30;33.03;;;;;;;8.13;77.79;101260.47;5006679;28;20025;-61